sensor_id;sensor_type;location;lat;lon;timestamp;P1;durP1;ratioP1;P2;durP2;ratioP2
30247;SDS011;17063;50.892;4.702;2023-03-04T00:00:19;15.13;;;7.53;;
30247;SDS011;17063;50.892;4.702;2023-03-04T00:02:46;11.13;;;7.40;;
30247;SDS011;17063;50.892;4.702;2023-03-04T00:05:13;14.37;;;7.03;;
30247;SDS011;17063;50.892;4.702;2023-03-04T00:07:40;17.07;;;7.30;;
30247;SDS011;17063;50.892;4.702;2023-03-04T00:10:07;11.90;;;6.70;;
30247;SDS011;17063;50.892;4.702;2023-03-04T00:12:34;13.43;;;6.47;;
30247;SDS011;17063;50.892;4.702;2023-03-04T00:15:01;12.07;;;6.53;;
30247;SDS011;17063;50.892;4.702;2023-03-04T00:17:28;14.73;;;7.03;;
30247;SDS011;17063;50.892;4.702;2023-03-04T00:19:56;22.23;;;6.90;;
30247;SDS011;17063;50.892;4.702;2023-03-04T00:22:27;15.97;;;6.23;;
30247;SDS011;17063;50.892;4.702;2023-03-04T00:24:54;13.90;;;6.37;;
30247;SDS011;17063;50.892;4.702;2023-03-04T00:27:23;18.27;;;6.10;;
30247;SDS011;17063;50.892;4.702;2023-03-04T00:29:50;18.63;;;6.00;;
30247;SDS011;17063;50.892;4.702;2023-03-04T00:32:17;16.10;;;6.00;;
30247;SDS011;17063;50.892;4.702;2023-03-04T00:34:44;17.00;;;5.53;;
30247;SDS011;17063;50.892;4.702;2023-03-04T00:37:11;14.40;;;5.43;;
30247;SDS011;17063;50.892;4.702;2023-03-04T00:39:38;16.03;;;5.67;;
30247;SDS011;17063;50.892;4.702;2023-03-04T00:42:05;20.20;;;6.37;;
30247;SDS011;17063;50.892;4.702;2023-03-04T00:44:32;17.37;;;5.27;;
30247;SDS011;17063;50.892;4.702;2023-03-04T00:46:59;14.63;;;5.60;;
30247;SDS011;17063;50.892;4.702;2023-03-04T00:49:26;11.67;;;5.47;;
30247;SDS011;17063;50.892;4.702;2023-03-04T00:51:53;18.53;;;6.17;;
30247;SDS011;17063;50.892;4.702;2023-03-04T00:54:20;15.67;;;5.50;;
30247;SDS011;17063;50.892;4.702;2023-03-04T00:56:47;18.37;;;6.07;;
30247;SDS011;17063;50.892;4.702;2023-03-04T00:59:13;13.77;;;6.27;;
30247;SDS011;17063;50.892;4.702;2023-03-04T01:01:40;16.73;;;6.23;;
30247;SDS011;17063;50.892;4.702;2023-03-04T01:04:08;15.50;;;6.20;;
30247;SDS011;17063;50.892;4.702;2023-03-04T01:06:34;17.47;;;6.07;;
30247;SDS011;17063;50.892;4.702;2023-03-04T01:09:01;12.10;;;6.00;;
30247;SDS011;17063;50.892;4.702;2023-03-04T01:11:28;21.13;;;5.70;;
30247;SDS011;17063;50.892;4.702;2023-03-04T01:13:55;21.03;;;6.03;;
30247;SDS011;17063;50.892;4.702;2023-03-04T01:16:22;17.30;;;5.80;;
30247;SDS011;17063;50.892;4.702;2023-03-04T01:18:49;13.40;;;5.70;;
30247;SDS011;17063;50.892;4.702;2023-03-04T01:21:16;18.73;;;6.27;;
30247;SDS011;17063;50.892;4.702;2023-03-04T01:23:42;18.23;;;6.33;;
30247;SDS011;17063;50.892;4.702;2023-03-04T01:26:09;15.57;;;6.00;;
30247;SDS011;17063;50.892;4.702;2023-03-04T01:28:36;16.27;;;6.00;;
30247;SDS011;17063;50.892;4.702;2023-03-04T01:31:05;20.77;;;5.83;;
30247;SDS011;17063;50.892;4.702;2023-03-04T01:33:32;16.67;;;5.93;;
30247;SDS011;17063;50.892;4.702;2023-03-04T01:35:58;16.67;;;5.60;;
30247;SDS011;17063;50.892;4.702;2023-03-04T01:38:25;20.57;;;5.87;;
30247;SDS011;17063;50.892;4.702;2023-03-04T01:40:52;17.70;;;5.53;;
30247;SDS011;17063;50.892;4.702;2023-03-04T01:43:21;25.70;;;5.97;;
30247;SDS011;17063;50.892;4.702;2023-03-04T01:45:50;13.13;;;4.90;;
30247;SDS011;17063;50.892;4.702;2023-03-04T01:48:19;13.77;;;4.83;;
30247;SDS011;17063;50.892;4.702;2023-03-04T01:50:49;14.50;;;6.03;;
30247;SDS011;17063;50.892;4.702;2023-03-04T01:53:16;12.37;;;5.00;;
30247;SDS011;17063;50.892;4.702;2023-03-04T01:55:47;12.37;;;5.33;;
30247;SDS011;17063;50.892;4.702;2023-03-04T01:58:14;14.77;;;5.10;;
30247;SDS011;17063;50.892;4.702;2023-03-04T02:00:41;16.13;;;5.70;;
30247;SDS011;17063;50.892;4.702;2023-03-04T02:03:13;16.77;;;5.93;;
30247;SDS011;17063;50.892;4.702;2023-03-04T02:05:47;11.37;;;4.57;;
30247;SDS011;17063;50.892;4.702;2023-03-04T02:08:16;15.33;;;4.63;;
30247;SDS011;17063;50.892;4.702;2023-03-04T02:10:44;13.33;;;4.23;;
30247;SDS011;17063;50.892;4.702;2023-03-04T02:13:11;20.77;;;4.97;;
30247;SDS011;17063;50.892;4.702;2023-03-04T02:15:40;12.33;;;4.20;;
30247;SDS011;17063;50.892;4.702;2023-03-04T02:18:15;10.77;;;5.17;;
30247;SDS011;17063;50.892;4.702;2023-03-04T02:28:47;15.90;;;3.77;;
30247;SDS011;17063;50.892;4.702;2023-03-04T02:31:34;11.27;;;4.30;;
30247;SDS011;17063;50.892;4.702;2023-03-04T02:34:05;20.40;;;4.20;;
30247;SDS011;17063;50.892;4.702;2023-03-04T02:36:53;16.37;;;4.53;;
30247;SDS011;17063;50.892;4.702;2023-03-04T02:41:54;15.23;;;3.77;;
30247;SDS011;17063;50.892;4.702;2023-03-04T02:44:23;16.57;;;4.40;;
30247;SDS011;17063;50.892;4.702;2023-03-04T02:46:58;9.37;;;3.90;;
30247;SDS011;17063;50.892;4.702;2023-03-04T02:49:25;23.47;;;4.07;;
30247;SDS011;17063;50.892;4.702;2023-03-04T02:54:27;18.60;;;3.83;;
30247;SDS011;17063;50.892;4.702;2023-03-04T02:56:55;18.40;;;4.13;;
30247;SDS011;17063;50.892;4.702;2023-03-04T02:59:24;16.53;;;4.53;;
30247;SDS011;17063;50.892;4.702;2023-03-04T03:01:50;18.30;;;4.23;;
30247;SDS011;17063;50.892;4.702;2023-03-04T03:04:19;19.77;;;4.47;;
30247;SDS011;17063;50.892;4.702;2023-03-04T03:06:50;16.73;;;4.17;;
30247;SDS011;17063;50.892;4.702;2023-03-04T03:09:17;18.30;;;4.17;;
30247;SDS011;17063;50.892;4.702;2023-03-04T03:11:44;18.67;;;4.00;;
30247;SDS011;17063;50.892;4.702;2023-03-04T03:14:12;14.77;;;4.40;;
30247;SDS011;17063;50.892;4.702;2023-03-04T03:16:39;20.03;;;4.83;;
30247;SDS011;17063;50.892;4.702;2023-03-04T03:19:06;17.00;;;3.90;;
30247;SDS011;17063;50.892;4.702;2023-03-04T03:21:34;20.53;;;3.93;;
30247;SDS011;17063;50.892;4.702;2023-03-04T03:24:01;22.23;;;4.33;;
30247;SDS011;17063;50.892;4.702;2023-03-04T03:26:28;11.40;;;3.97;;
30247;SDS011;17063;50.892;4.702;2023-03-04T03:28:55;12.23;;;4.23;;
30247;SDS011;17063;50.892;4.702;2023-03-04T03:31:21;11.80;;;4.30;;
30247;SDS011;17063;50.892;4.702;2023-03-04T03:33:48;16.00;;;4.80;;
30247;SDS011;17063;50.892;4.702;2023-03-04T03:36:15;14.70;;;3.77;;
30247;SDS011;17063;50.892;4.702;2023-03-04T03:38:42;14.27;;;4.40;;
30247;SDS011;17063;50.892;4.702;2023-03-04T03:41:09;14.07;;;4.13;;
30247;SDS011;17063;50.892;4.702;2023-03-04T03:43:36;14.00;;;4.10;;
30247;SDS011;17063;50.892;4.702;2023-03-04T03:46:02;18.60;;;4.70;;
30247;SDS011;17063;50.892;4.702;2023-03-04T03:48:29;13.70;;;4.27;;
30247;SDS011;17063;50.892;4.702;2023-03-04T03:50:56;20.07;;;5.10;;
30247;SDS011;17063;50.892;4.702;2023-03-04T03:53:23;15.87;;;4.20;;
30247;SDS011;17063;50.892;4.702;2023-03-04T03:55:50;15.80;;;3.90;;
30247;SDS011;17063;50.892;4.702;2023-03-04T03:58:16;15.60;;;4.77;;
30247;SDS011;17063;50.892;4.702;2023-03-04T04:00:43;18.27;;;4.77;;
30247;SDS011;17063;50.892;4.702;2023-03-04T04:03:11;19.33;;;4.47;;
30247;SDS011;17063;50.892;4.702;2023-03-04T04:05:40;18.63;;;4.47;;
30247;SDS011;17063;50.892;4.702;2023-03-04T04:08:08;15.67;;;4.43;;
30247;SDS011;17063;50.892;4.702;2023-03-04T04:10:39;20.27;;;4.93;;
30247;SDS011;17063;50.892;4.702;2023-03-04T04:13:07;10.30;;;3.80;;
30247;SDS011;17063;50.892;4.702;2023-03-04T04:15:34;17.97;;;4.23;;
30247;SDS011;17063;50.892;4.702;2023-03-04T04:18:01;17.60;;;4.67;;
30247;SDS011;17063;50.892;4.702;2023-03-04T04:20:28;13.30;;;4.23;;
30247;SDS011;17063;50.892;4.702;2023-03-04T04:22:55;16.60;;;4.57;;
30247;SDS011;17063;50.892;4.702;2023-03-04T04:25:22;12.57;;;4.47;;
30247;SDS011;17063;50.892;4.702;2023-03-04T04:27:49;17.33;;;4.93;;
30247;SDS011;17063;50.892;4.702;2023-03-04T04:30:16;16.17;;;4.50;;
30247;SDS011;17063;50.892;4.702;2023-03-04T04:32:42;16.03;;;4.90;;
30247;SDS011;17063;50.892;4.702;2023-03-04T04:35:09;12.20;;;4.00;;
30247;SDS011;17063;50.892;4.702;2023-03-04T04:37:36;14.00;;;3.97;;
30247;SDS011;17063;50.892;4.702;2023-03-04T04:40:03;10.43;;;3.60;;
30247;SDS011;17063;50.892;4.702;2023-03-04T04:42:30;15.37;;;3.80;;
30247;SDS011;17063;50.892;4.702;2023-03-04T04:44:57;14.37;;;3.63;;
30247;SDS011;17063;50.892;4.702;2023-03-04T04:47:24;13.20;;;3.50;;
30247;SDS011;17063;50.892;4.702;2023-03-04T04:49:50;12.20;;;4.63;;
30247;SDS011;17063;50.892;4.702;2023-03-04T04:52:17;14.80;;;3.70;;
30247;SDS011;17063;50.892;4.702;2023-03-04T04:54:44;16.17;;;3.30;;
30247;SDS011;17063;50.892;4.702;2023-03-04T04:57:11;11.90;;;3.23;;
30247;SDS011;17063;50.892;4.702;2023-03-04T04:59:38;22.37;;;3.77;;
30247;SDS011;17063;50.892;4.702;2023-03-04T05:02:04;11.17;;;3.10;;
30247;SDS011;17063;50.892;4.702;2023-03-04T05:04:32;13.63;;;3.60;;
30247;SDS011;17063;50.892;4.702;2023-03-04T05:06:58;17.10;;;3.47;;
30247;SDS011;17063;50.892;4.702;2023-03-04T05:09:25;14.77;;;3.43;;
30247;SDS011;17063;50.892;4.702;2023-03-04T05:11:52;12.93;;;3.50;;
30247;SDS011;17063;50.892;4.702;2023-03-04T05:14:19;11.20;;;4.73;;
30247;SDS011;17063;50.892;4.702;2023-03-04T05:16:46;15.00;;;3.53;;
30247;SDS011;17063;50.892;4.702;2023-03-04T05:19:13;11.80;;;3.43;;
30247;SDS011;17063;50.892;4.702;2023-03-04T05:21:39;16.50;;;3.50;;
30247;SDS011;17063;50.892;4.702;2023-03-04T05:24:06;14.60;;;3.03;;
30247;SDS011;17063;50.892;4.702;2023-03-04T05:26:33;13.03;;;4.27;;
30247;SDS011;17063;50.892;4.702;2023-03-04T05:29:00;14.47;;;3.17;;
30247;SDS011;17063;50.892;4.702;2023-03-04T05:31:27;15.37;;;3.63;;
30247;SDS011;17063;50.892;4.702;2023-03-04T05:33:54;16.87;;;3.73;;
30247;SDS011;17063;50.892;4.702;2023-03-04T05:36:21;10.03;;;3.40;;
30247;SDS011;17063;50.892;4.702;2023-03-04T05:38:48;11.33;;;2.67;;
30247;SDS011;17063;50.892;4.702;2023-03-04T05:41:15;14.70;;;3.87;;
30247;SDS011;17063;50.892;4.702;2023-03-04T05:43:44;17.17;;;3.33;;
30247;SDS011;17063;50.892;4.702;2023-03-04T05:46:12;12.10;;;3.40;;
30247;SDS011;17063;50.892;4.702;2023-03-04T05:48:40;9.30;;;3.13;;
30247;SDS011;17063;50.892;4.702;2023-03-04T05:51:07;11.03;;;3.03;;
30247;SDS011;17063;50.892;4.702;2023-03-04T05:53:34;16.50;;;3.53;;
30247;SDS011;17063;50.892;4.702;2023-03-04T05:56:06;14.27;;;3.43;;
30247;SDS011;17063;50.892;4.702;2023-03-04T05:58:34;10.30;;;3.50;;
30247;SDS011;17063;50.892;4.702;2023-03-04T06:01:01;11.73;;;3.67;;
30247;SDS011;17063;50.892;4.702;2023-03-04T06:03:28;10.87;;;3.57;;
30247;SDS011;17063;50.892;4.702;2023-03-04T06:05:55;14.13;;;4.03;;
30247;SDS011;17063;50.892;4.702;2023-03-04T06:08:22;12.53;;;3.70;;
30247;SDS011;17063;50.892;4.702;2023-03-04T06:10:50;18.30;;;3.97;;
30247;SDS011;17063;50.892;4.702;2023-03-04T06:13:18;16.57;;;4.23;;
30247;SDS011;17063;50.892;4.702;2023-03-04T06:15:45;12.53;;;4.20;;
30247;SDS011;17063;50.892;4.702;2023-03-04T06:18:12;19.03;;;4.93;;
30247;SDS011;17063;50.892;4.702;2023-03-04T06:20:39;15.27;;;4.23;;
30247;SDS011;17063;50.892;4.702;2023-03-04T06:23:06;13.87;;;4.00;;
30247;SDS011;17063;50.892;4.702;2023-03-04T06:25:33;16.13;;;4.97;;
30247;SDS011;17063;50.892;4.702;2023-03-04T06:28:00;16.03;;;4.37;;
30247;SDS011;17063;50.892;4.702;2023-03-04T06:30:27;12.90;;;4.00;;
30247;SDS011;17063;50.892;4.702;2023-03-04T06:32:54;8.13;;;3.90;;
30247;SDS011;17063;50.892;4.702;2023-03-04T06:35:21;13.07;;;4.43;;
30247;SDS011;17063;50.892;4.702;2023-03-04T06:37:47;14.20;;;4.77;;
30247;SDS011;17063;50.892;4.702;2023-03-04T06:40:14;14.23;;;5.30;;
30247;SDS011;17063;50.892;4.702;2023-03-04T06:42:41;15.50;;;4.50;;
30247;SDS011;17063;50.892;4.702;2023-03-04T06:45:09;14.47;;;4.33;;
30247;SDS011;17063;50.892;4.702;2023-03-04T06:47:36;17.60;;;4.90;;
30247;SDS011;17063;50.892;4.702;2023-03-04T06:50:03;17.77;;;4.70;;
30247;SDS011;17063;50.892;4.702;2023-03-04T06:52:31;17.70;;;5.20;;
30247;SDS011;17063;50.892;4.702;2023-03-04T06:54:58;13.90;;;5.50;;
30247;SDS011;17063;50.892;4.702;2023-03-04T06:57:24;16.57;;;5.53;;
30247;SDS011;17063;50.892;4.702;2023-03-04T06:59:51;15.97;;;5.63;;
30247;SDS011;17063;50.892;4.702;2023-03-04T07:02:18;15.40;;;5.60;;
30247;SDS011;17063;50.892;4.702;2023-03-04T07:04:47;13.30;;;4.77;;
30247;SDS011;17063;50.892;4.702;2023-03-04T07:07:14;19.40;;;4.97;;
30247;SDS011;17063;50.892;4.702;2023-03-04T07:09:44;18.50;;;4.80;;
30247;SDS011;17063;50.892;4.702;2023-03-04T07:12:11;18.27;;;4.87;;
30247;SDS011;17063;50.892;4.702;2023-03-04T07:14:38;14.17;;;5.00;;
30247;SDS011;17063;50.892;4.702;2023-03-04T07:17:05;13.50;;;5.10;;
30247;SDS011;17063;50.892;4.702;2023-03-04T07:19:32;10.73;;;4.17;;
30247;SDS011;17063;50.892;4.702;2023-03-04T07:22:00;15.53;;;4.07;;
30247;SDS011;17063;50.892;4.702;2023-03-04T07:24:26;15.53;;;4.03;;
30247;SDS011;17063;50.892;4.702;2023-03-04T07:26:53;10.00;;;4.33;;
30247;SDS011;17063;50.892;4.702;2023-03-04T07:29:20;15.67;;;4.47;;
30247;SDS011;17063;50.892;4.702;2023-03-04T07:31:46;14.87;;;4.00;;
30247;SDS011;17063;50.892;4.702;2023-03-04T07:34:16;12.00;;;4.37;;
30247;SDS011;17063;50.892;4.702;2023-03-04T07:36:43;11.27;;;4.33;;
30247;SDS011;17063;50.892;4.702;2023-03-04T07:39:10;19.70;;;4.07;;
30247;SDS011;17063;50.892;4.702;2023-03-04T07:41:39;12.13;;;3.87;;
30247;SDS011;17063;50.892;4.702;2023-03-04T07:44:07;8.33;;;3.53;;
30247;SDS011;17063;50.892;4.702;2023-03-04T07:46:35;11.80;;;3.73;;
30247;SDS011;17063;50.892;4.702;2023-03-04T07:49:03;11.20;;;3.67;;
30247;SDS011;17063;50.892;4.702;2023-03-04T07:51:30;16.23;;;5.83;;
30247;SDS011;17063;50.892;4.702;2023-03-04T07:53:58;15.37;;;6.03;;
30247;SDS011;17063;50.892;4.702;2023-03-04T07:56:27;12.27;;;3.93;;
30247;SDS011;17063;50.892;4.702;2023-03-04T07:58:55;12.43;;;3.97;;
30247;SDS011;17063;50.892;4.702;2023-03-04T08:01:34;8.43;;;3.30;;
30247;SDS011;17063;50.892;4.702;2023-03-04T08:04:03;18.87;;;4.17;;
30247;SDS011;17063;50.892;4.702;2023-03-04T08:06:31;10.47;;;3.03;;
30247;SDS011;17063;50.892;4.702;2023-03-04T08:08:59;15.27;;;3.57;;
30247;SDS011;17063;50.892;4.702;2023-03-04T08:11:31;10.23;;;2.77;;
30247;SDS011;17063;50.892;4.702;2023-03-04T08:13:59;18.55;;;3.25;;
30247;SDS011;17063;50.892;4.702;2023-03-04T08:16:26;12.20;;;2.53;;
30247;SDS011;17063;50.892;4.702;2023-03-04T08:18:54;12.93;;;2.90;;
30247;SDS011;17063;50.892;4.702;2023-03-04T08:21:22;8.30;;;3.00;;
30247;SDS011;17063;50.892;4.702;2023-03-04T08:23:50;13.40;;;2.80;;
30247;SDS011;17063;50.892;4.702;2023-03-04T08:26:25;12.83;;;2.77;;
30247;SDS011;17063;50.892;4.702;2023-03-04T08:28:53;9.20;;;2.80;;
30247;SDS011;17063;50.892;4.702;2023-03-04T08:31:22;11.07;;;2.73;;
30247;SDS011;17063;50.892;4.702;2023-03-04T08:33:49;9.43;;;2.50;;
30247;SDS011;17063;50.892;4.702;2023-03-04T08:36:18;7.53;;;2.20;;
30247;SDS011;17063;50.892;4.702;2023-03-04T08:38:45;7.37;;;2.17;;
30247;SDS011;17063;50.892;4.702;2023-03-04T08:41:12;8.27;;;2.30;;
30247;SDS011;17063;50.892;4.702;2023-03-04T08:43:39;5.20;;;1.80;;
30247;SDS011;17063;50.892;4.702;2023-03-04T08:46:06;7.63;;;2.03;;
30247;SDS011;17063;50.892;4.702;2023-03-04T08:48:34;3.63;;;1.70;;
30247;SDS011;17063;50.892;4.702;2023-03-04T08:51:06;7.37;;;2.00;;
30247;SDS011;17063;50.892;4.702;2023-03-04T08:53:42;9.13;;;2.10;;
30247;SDS011;17063;50.892;4.702;2023-03-04T08:56:10;11.43;;;2.77;;
30247;SDS011;17063;50.892;4.702;2023-03-04T08:58:37;5.63;;;1.73;;
30247;SDS011;17063;50.892;4.702;2023-03-04T09:01:04;10.43;;;2.50;;
30247;SDS011;17063;50.892;4.702;2023-03-04T09:03:34;5.07;;;2.07;;
30247;SDS011;17063;50.892;4.702;2023-03-04T09:06:02;14.23;;;2.27;;
30247;SDS011;17063;50.892;4.702;2023-03-04T09:08:29;6.87;;;2.90;;
30247;SDS011;17063;50.892;4.702;2023-03-04T09:10:56;12.47;;;3.20;;
30247;SDS011;17063;50.892;4.702;2023-03-04T09:13:23;7.63;;;2.03;;
30247;SDS011;17063;50.892;4.702;2023-03-04T09:15:53;9.20;;;2.10;;
30247;SDS011;17063;50.892;4.702;2023-03-04T09:18:23;10.53;;;2.50;;
30247;SDS011;17063;50.892;4.702;2023-03-04T09:20:51;5.27;;;2.30;;
30247;SDS011;17063;50.892;4.702;2023-03-04T09:23:18;8.93;;;2.33;;
30247;SDS011;17063;50.892;4.702;2023-03-04T09:25:45;8.00;;;2.30;;
30247;SDS011;17063;50.892;4.702;2023-03-04T09:28:13;9.00;;;2.50;;
30247;SDS011;17063;50.892;4.702;2023-03-04T09:30:40;5.50;;;2.37;;
30247;SDS011;17063;50.892;4.702;2023-03-04T09:33:08;14.30;;;2.87;;
30247;SDS011;17063;50.892;4.702;2023-03-04T09:35:36;4.50;;;2.50;;
30247;SDS011;17063;50.892;4.702;2023-03-04T09:38:03;10.07;;;2.90;;
30247;SDS011;17063;50.892;4.702;2023-03-04T09:40:38;11.27;;;2.70;;
30247;SDS011;17063;50.892;4.702;2023-03-04T09:43:10;6.40;;;2.80;;
30247;SDS011;17063;50.892;4.702;2023-03-04T09:45:46;13.00;;;3.40;;
30247;SDS011;17063;50.892;4.702;2023-03-04T09:48:21;9.07;;;2.60;;
30247;SDS011;17063;50.892;4.702;2023-03-04T09:50:57;11.03;;;2.73;;
30247;SDS011;17063;50.892;4.702;2023-03-04T09:56:24;11.80;;;2.07;;
30247;SDS011;17063;50.892;4.702;2023-03-04T10:01:23;7.27;;;2.27;;
30247;SDS011;17063;50.892;4.702;2023-03-04T10:07:01;5.40;;;1.93;;
30247;SDS011;17063;50.892;4.702;2023-03-04T10:09:54;5.37;;;1.33;;
30247;SDS011;17063;50.892;4.702;2023-03-04T10:12:24;5.93;;;1.97;;
30247;SDS011;17063;50.892;4.702;2023-03-04T10:15:07;11.20;;;2.37;;
30247;SDS011;17063;50.892;4.702;2023-03-04T10:17:44;9.00;;;1.90;;
30247;SDS011;17063;50.892;4.702;2023-03-04T10:20:21;7.17;;;2.40;;
30247;SDS011;17063;50.892;4.702;2023-03-04T10:22:55;11.73;;;2.10;;
30247;SDS011;17063;50.892;4.702;2023-03-04T10:25:26;9.43;;;1.93;;
30247;SDS011;17063;50.892;4.702;2023-03-04T10:28:26;6.80;;;1.70;;
30247;SDS011;17063;50.892;4.702;2023-03-04T10:31:01;8.50;;;2.03;;
30247;SDS011;17063;50.892;4.702;2023-03-04T10:33:32;4.93;;;1.63;;
30247;SDS011;17063;50.892;4.702;2023-03-04T10:36:03;3.57;;;1.90;;
30247;SDS011;17063;50.892;4.702;2023-03-04T10:38:36;7.53;;;1.93;;
30247;SDS011;17063;50.892;4.702;2023-03-04T10:41:21;3.87;;;1.67;;
30247;SDS011;17063;50.892;4.702;2023-03-04T10:43:59;8.13;;;2.10;;
30247;SDS011;17063;50.892;4.702;2023-03-04T10:46:38;6.03;;;2.00;;
30247;SDS011;17063;50.892;4.702;2023-03-04T10:49:11;7.20;;;2.10;;
30247;SDS011;17063;50.892;4.702;2023-03-04T10:51:41;6.67;;;2.70;;
30247;SDS011;17063;50.892;4.702;2023-03-04T10:56:56;7.53;;;2.20;;
30247;SDS011;17063;50.892;4.702;2023-03-04T11:02:26;3.30;;;1.90;;
30247;SDS011;17063;50.892;4.702;2023-03-04T11:07:42;6.30;;;2.10;;
30247;SDS011;17063;50.892;4.702;2023-03-04T11:13:11;6.80;;;2.40;;
30247;SDS011;17063;50.892;4.702;2023-03-04T11:16:02;4.20;;;2.10;;
30247;SDS011;17063;50.892;4.702;2023-03-04T11:21:07;5.10;;;2.73;;
30247;SDS011;17063;50.892;4.702;2023-03-04T11:23:48;6.60;;;2.33;;
30247;SDS011;17063;50.892;4.702;2023-03-04T11:26:29;8.37;;;2.80;;
30247;SDS011;17063;50.892;4.702;2023-03-04T11:45:13;7.20;;;2.20;;
30247;SDS011;17063;50.892;4.702;2023-03-04T11:51:09;6.63;;;2.47;;
30247;SDS011;17063;50.892;4.702;2023-03-04T11:54:19;11.07;;;3.03;;
30247;SDS011;17063;50.892;4.702;2023-03-04T12:02:30;9.50;;;2.17;;
30247;SDS011;17063;50.892;4.702;2023-03-04T12:05:16;8.23;;;2.00;;
30247;SDS011;17063;50.892;4.702;2023-03-04T12:07:57;3.63;;;1.87;;
30247;SDS011;17063;50.892;4.702;2023-03-04T12:10:35;2.53;;;1.73;;
30247;SDS011;17063;50.892;4.702;2023-03-04T12:16:31;4.50;;;1.80;;
30247;SDS011;17063;50.892;4.702;2023-03-04T12:19:25;3.23;;;1.60;;
30247;SDS011;17063;50.892;4.702;2023-03-04T12:33:23;6.87;;;1.80;;
30247;SDS011;17063;50.892;4.702;2023-03-04T12:44:21;14.20;;;2.70;;
30247;SDS011;17063;50.892;4.702;2023-03-04T12:54:44;5.30;;;2.57;;
30247;SDS011;17063;50.892;4.702;2023-03-04T12:57:14;6.07;;;2.70;;
30247;SDS011;17063;50.892;4.702;2023-03-04T13:03:12;8.23;;;2.90;;
30247;SDS011;17063;50.892;4.702;2023-03-04T13:11:01;5.10;;;2.97;;
30247;SDS011;17063;50.892;4.702;2023-03-04T13:14:01;10.83;;;3.00;;
30247;SDS011;17063;50.892;4.702;2023-03-04T13:19:00;10.57;;;3.67;;
30247;SDS011;17063;50.892;4.702;2023-03-04T13:21:28;5.40;;;3.77;;
30247;SDS011;17063;50.892;4.702;2023-03-04T13:23:57;6.87;;;3.03;;
30247;SDS011;17063;50.892;4.702;2023-03-04T13:26:32;9.80;;;3.83;;
30247;SDS011;17063;50.892;4.702;2023-03-04T13:34:51;8.60;;;3.20;;
30247;SDS011;17063;50.892;4.702;2023-03-04T13:37:35;8.20;;;3.10;;
30247;SDS011;17063;50.892;4.702;2023-03-04T13:42:52;10.43;;;3.87;;
30247;SDS011;17063;50.892;4.702;2023-03-04T13:47:57;7.83;;;4.27;;
30247;SDS011;17063;50.892;4.702;2023-03-04T13:50:28;7.20;;;3.80;;
30247;SDS011;17063;50.892;4.702;2023-03-04T13:53:21;9.90;;;3.53;;
30247;SDS011;17063;50.892;4.702;2023-03-04T13:56:11;9.70;;;3.47;;
30247;SDS011;17063;50.892;4.702;2023-03-04T13:58:44;5.50;;;3.10;;
30247;SDS011;17063;50.892;4.702;2023-03-04T14:01:27;10.27;;;3.40;;
30247;SDS011;17063;50.892;4.702;2023-03-04T14:03:57;7.43;;;4.03;;
30247;SDS011;17063;50.892;4.702;2023-03-04T14:06:26;5.53;;;3.50;;
30247;SDS011;17063;50.892;4.702;2023-03-04T14:08:54;10.03;;;3.93;;
30247;SDS011;17063;50.892;4.702;2023-03-04T14:11:24;7.77;;;3.90;;
30247;SDS011;17063;50.892;4.702;2023-03-04T14:13:52;7.30;;;3.47;;
30247;SDS011;17063;50.892;4.702;2023-03-04T14:16:19;9.00;;;3.97;;
30247;SDS011;17063;50.892;4.702;2023-03-04T14:18:56;7.90;;;3.30;;
30247;SDS011;17063;50.892;4.702;2023-03-04T14:21:28;6.90;;;3.13;;
30247;SDS011;17063;50.892;4.702;2023-03-04T14:23:58;5.97;;;3.40;;
30247;SDS011;17063;50.892;4.702;2023-03-04T14:26:26;6.03;;;3.20;;
30247;SDS011;17063;50.892;4.702;2023-03-04T14:28:56;10.17;;;3.23;;
30247;SDS011;17063;50.892;4.702;2023-03-04T14:31:26;5.00;;;3.17;;
30247;SDS011;17063;50.892;4.702;2023-03-04T14:33:58;4.83;;;3.53;;
30247;SDS011;17063;50.892;4.702;2023-03-04T14:36:34;6.90;;;3.77;;
30247;SDS011;17063;50.892;4.702;2023-03-04T14:39:03;6.33;;;3.50;;
30247;SDS011;17063;50.892;4.702;2023-03-04T14:41:32;4.80;;;3.07;;
30247;SDS011;17063;50.892;4.702;2023-03-04T14:46:45;8.63;;;4.10;;
30247;SDS011;17063;50.892;4.702;2023-03-04T14:49:32;5.23;;;4.03;;
30247;SDS011;17063;50.892;4.702;2023-03-04T14:52:01;18.23;;;6.83;;
30247;SDS011;17063;50.892;4.702;2023-03-04T14:54:29;7.53;;;4.10;;
30247;SDS011;17063;50.892;4.702;2023-03-04T14:57:23;6.57;;;4.63;;
30247;SDS011;17063;50.892;4.702;2023-03-04T14:59:52;7.47;;;4.07;;
30247;SDS011;17063;50.892;4.702;2023-03-04T15:02:26;8.90;;;4.37;;
30247;SDS011;17063;50.892;4.702;2023-03-04T15:04:59;8.53;;;4.47;;
30247;SDS011;17063;50.892;4.702;2023-03-04T15:07:42;9.03;;;4.80;;
30247;SDS011;17063;50.892;4.702;2023-03-04T15:10:20;10.07;;;5.50;;
30247;SDS011;17063;50.892;4.702;2023-03-04T15:12:50;9.97;;;5.53;;
30247;SDS011;17063;50.892;4.702;2023-03-04T15:15:38;14.43;;;6.87;;
30247;SDS011;17063;50.892;4.702;2023-03-04T15:18:14;9.10;;;5.53;;
30247;SDS011;17063;50.892;4.702;2023-03-04T15:23:28;12.03;;;4.20;;
30247;SDS011;17063;50.892;4.702;2023-03-04T15:26:01;7.33;;;4.47;;
30247;SDS011;17063;50.892;4.702;2023-03-04T15:28:31;5.90;;;3.80;;
30247;SDS011;17063;50.892;4.702;2023-03-04T15:31:00;5.57;;;3.90;;
30247;SDS011;17063;50.892;4.702;2023-03-04T15:33:27;8.57;;;4.23;;
30247;SDS011;17063;50.892;4.702;2023-03-04T15:35:58;6.73;;;4.20;;
30247;SDS011;17063;50.892;4.702;2023-03-04T15:38:26;4.00;;;3.40;;
30247;SDS011;17063;50.892;4.702;2023-03-04T15:40:54;5.03;;;3.47;;
30247;SDS011;17063;50.892;4.702;2023-03-04T15:43:23;4.07;;;3.67;;
30247;SDS011;17063;50.892;4.702;2023-03-04T15:45:51;4.70;;;3.27;;
30247;SDS011;17063;50.892;4.702;2023-03-04T15:48:18;4.93;;;3.40;;
30247;SDS011;17063;50.892;4.702;2023-03-04T15:50:47;7.67;;;4.50;;
30247;SDS011;17063;50.892;4.702;2023-03-04T15:53:21;8.60;;;4.00;;
30247;SDS011;17063;50.892;4.702;2023-03-04T15:56:14;9.17;;;3.27;;
30247;SDS011;17063;50.892;4.702;2023-03-04T15:58:47;5.07;;;2.70;;
30247;SDS011;17063;50.892;4.702;2023-03-04T16:01:22;4.43;;;3.10;;
30247;SDS011;17063;50.892;4.702;2023-03-04T16:03:50;4.73;;;2.77;;
30247;SDS011;17063;50.892;4.702;2023-03-04T16:06:19;6.93;;;2.57;;
30247;SDS011;17063;50.892;4.702;2023-03-04T16:08:49;5.50;;;2.70;;
30247;SDS011;17063;50.892;4.702;2023-03-04T16:11:18;6.07;;;2.17;;
30247;SDS011;17063;50.892;4.702;2023-03-04T16:13:46;8.13;;;2.50;;
30247;SDS011;17063;50.892;4.702;2023-03-04T16:16:13;7.40;;;2.40;;
30247;SDS011;17063;50.892;4.702;2023-03-04T16:18:40;7.60;;;2.60;;
30247;SDS011;17063;50.892;4.702;2023-03-04T16:21:14;6.13;;;2.70;;
30247;SDS011;17063;50.892;4.702;2023-03-04T16:44:12;6.00;;;3.00;;
30247;SDS011;17063;50.892;4.702;2023-03-04T16:46:40;5.20;;;2.90;;
30247;SDS011;17063;50.892;4.702;2023-03-04T16:49:07;5.83;;;2.50;;
30247;SDS011;17063;50.892;4.702;2023-03-04T16:51:40;10.17;;;2.47;;
30247;SDS011;17063;50.892;4.702;2023-03-04T16:54:12;5.17;;;2.20;;
30247;SDS011;17063;50.892;4.702;2023-03-04T16:56:41;9.03;;;2.90;;
30247;SDS011;17063;50.892;4.702;2023-03-04T16:59:10;6.67;;;3.83;;
30247;SDS011;17063;50.892;4.702;2023-03-04T17:01:40;5.47;;;2.90;;
30247;SDS011;17063;50.892;4.702;2023-03-04T17:04:07;6.20;;;2.73;;
30247;SDS011;17063;50.892;4.702;2023-03-04T17:06:34;7.87;;;3.30;;
30247;SDS011;17063;50.892;4.702;2023-03-04T17:09:04;9.60;;;3.10;;
30247;SDS011;17063;50.892;4.702;2023-03-04T17:11:32;8.70;;;2.47;;
30247;SDS011;17063;50.892;4.702;2023-03-04T17:13:59;8.53;;;2.87;;
30247;SDS011;17063;50.892;4.702;2023-03-04T17:16:26;7.73;;;2.20;;